sensor_id;sensor_type;location;lat;lon;timestamp;temperature;humidity
5802;DHT22;2927;49.366;8.530;2023-05-07T00:01:42;14.50;99.90
5802;DHT22;2927;49.366;8.530;2023-05-07T00:04:08;14.50;99.90
5802;DHT22;2927;49.366;8.530;2023-05-07T00:06:33;14.50;99.90
5802;DHT22;2927;49.366;8.530;2023-05-07T00:08:59;14.50;99.90
5802;DHT22;2927;49.366;8.530;2023-05-07T00:11:25;14.50;99.90
5802;DHT22;2927;49.366;8.530;2023-05-07T00:13:51;14.60;99.90
5802;DHT22;2927;49.366;8.530;2023-05-07T00:16:16;14.50;99.90
5802;DHT22;2927;49.366;8.530;2023-05-07T00:18:42;14.60;99.90
5802;DHT22;2927;49.366;8.530;2023-05-07T00:21:07;14.70;99.90
5802;DHT22;2927;49.366;8.530;2023-05-07T00:23:33;14.70;99.90
5802;DHT22;2927;49.366;8.530;2023-05-07T00:25:59;14.60;99.90
5802;DHT22;2927;49.366;8.530;2023-05-07T00:28:24;14.60;99.90
5802;DHT22;2927;49.366;8.530;2023-05-07T00:30:50;14.50;99.90
5802;DHT22;2927;49.366;8.530;2023-05-07T00:33:15;14.50;99.90
5802;DHT22;2927;49.366;8.530;2023-05-07T00:35:42;14.40;99.90
5802;DHT22;2927;49.366;8.530;2023-05-07T00:38:07;14.30;99.90
5802;DHT22;2927;49.366;8.530;2023-05-07T00:40:33;14.30;99.90
5802;DHT22;2927;49.366;8.530;2023-05-07T00:42:59;14.20;99.90
5802;DHT22;2927;49.366;8.530;2023-05-07T00:45:28;14.20;99.90
5802;DHT22;2927;49.366;8.530;2023-05-07T00:47:58;14.20;99.90
5802;DHT22;2927;49.366;8.530;2023-05-07T00:50:24;14.20;99.90
5802;DHT22;2927;49.366;8.530;2023-05-07T00:52:50;14.20;99.90
5802;DHT22;2927;49.366;8.530;2023-05-07T00:55:16;14.10;99.90
5802;DHT22;2927;49.366;8.530;2023-05-07T00:57:42;14.10;99.90
5802;DHT22;2927;49.366;8.530;2023-05-07T01:00:08;14.00;99.90
5802;DHT22;2927;49.366;8.530;2023-05-07T01:02:35;14.00;99.90
5802;DHT22;2927;49.366;8.530;2023-05-07T01:05:02;14.00;99.90
5802;DHT22;2927;49.366;8.530;2023-05-07T01:07:29;14.00;99.90
5802;DHT22;2927;49.366;8.530;2023-05-07T01:09:56;13.90;99.90
5802;DHT22;2927;49.366;8.530;2023-05-07T01:12:22;14.00;99.90
5802;DHT22;2927;49.366;8.530;2023-05-07T01:14:48;13.90;99.90
5802;DHT22;2927;49.366;8.530;2023-05-07T01:17:15;14.00;99.90
5802;DHT22;2927;49.366;8.530;2023-05-07T01:19:41;13.90;99.90
5802;DHT22;2927;49.366;8.530;2023-05-07T01:22:10;13.90;99.90
5802;DHT22;2927;49.366;8.530;2023-05-07T01:24:37;13.90;99.90
5802;DHT22;2927;49.366;8.530;2023-05-07T01:27:04;13.80;99.90
5802;DHT22;2927;49.366;8.530;2023-05-07T01:29:29;13.70;99.90
5802;DHT22;2927;49.366;8.530;2023-05-07T01:32:00;13.60;99.90
5802;DHT22;2927;49.366;8.530;2023-05-07T01:34:28;13.70;99.90
5802;DHT22;2927;49.366;8.530;2023-05-07T01:36:55;13.60;99.90
5802;DHT22;2927;49.366;8.530;2023-05-07T01:39:25;13.50;99.90
5802;DHT22;2927;49.366;8.530;2023-05-07T01:41:51;13.50;99.90
5802;DHT22;2927;49.366;8.530;2023-05-07T01:44:17;13.40;99.90
5802;DHT22;2927;49.366;8.530;2023-05-07T01:46:43;13.40;99.90
5802;DHT22;2927;49.366;8.530;2023-05-07T01:49:09;13.30;99.90
5802;DHT22;2927;49.366;8.530;2023-05-07T01:51:35;13.30;99.90
5802;DHT22;2927;49.366;8.530;2023-05-07T01:54:01;13.30;99.90
5802;DHT22;2927;49.366;8.530;2023-05-07T01:56:27;13.30;99.90
5802;DHT22;2927;49.366;8.530;2023-05-07T01:58:52;13.20;99.90
5802;DHT22;2927;49.366;8.530;2023-05-07T02:01:18;13.20;99.90
5802;DHT22;2927;49.366;8.530;2023-05-07T02:03:44;13.10;99.90
5802;DHT22;2927;49.366;8.530;2023-05-07T02:06:09;13.00;99.90
5802;DHT22;2927;49.366;8.530;2023-05-07T02:08:35;12.90;99.90
5802;DHT22;2927;49.366;8.530;2023-05-07T02:11:01;12.90;99.90
5802;DHT22;2927;49.366;8.530;2023-05-07T02:13:29;12.90;99.90
5802;DHT22;2927;49.366;8.530;2023-05-07T02:15:55;12.90;99.90
5802;DHT22;2927;49.366;8.530;2023-05-07T02:18:21;12.90;99.90
5802;DHT22;2927;49.366;8.530;2023-05-07T02:20:46;12.80;99.90
5802;DHT22;2927;49.366;8.530;2023-05-07T02:23:12;12.80;99.90
5802;DHT22;2927;49.366;8.530;2023-05-07T02:25:37;12.90;99.90
5802;DHT22;2927;49.366;8.530;2023-05-07T02:28:03;12.80;99.90
5802;DHT22;2927;49.366;8.530;2023-05-07T02:30:28;12.80;99.90
5802;DHT22;2927;49.366;8.530;2023-05-07T02:32:54;12.80;99.90
5802;DHT22;2927;49.366;8.530;2023-05-07T02:35:20;12.70;99.90
5802;DHT22;2927;49.366;8.530;2023-05-07T02:37:45;12.70;99.90
5802;DHT22;2927;49.366;8.530;2023-05-07T02:40:11;12.70;99.90
5802;DHT22;2927;49.366;8.530;2023-05-07T02:42:37;12.70;99.90
5802;DHT22;2927;49.366;8.530;2023-05-07T02:45:03;12.60;99.90
5802;DHT22;2927;49.366;8.530;2023-05-07T02:47:28;12.60;99.90
5802;DHT22;2927;49.366;8.530;2023-05-07T02:49:54;12.60;99.90
5802;DHT22;2927;49.366;8.530;2023-05-07T02:52:20;12.60;99.90
5802;DHT22;2927;49.366;8.530;2023-05-07T02:54:46;12.60;99.90
5802;DHT22;2927;49.366;8.530;2023-05-07T02:57:11;12.60;99.90
5802;DHT22;2927;49.366;8.530;2023-05-07T02:59:37;12.60;99.90
5802;DHT22;2927;49.366;8.530;2023-05-07T03:02:02;12.60;99.90
5802;DHT22;2927;49.366;8.530;2023-05-07T03:04:28;12.70;99.90
5802;DHT22;2927;49.366;8.530;2023-05-07T03:06:53;12.70;99.90
5802;DHT22;2927;49.366;8.530;2023-05-07T03:09:20;12.70;99.90
5802;DHT22;2927;49.366;8.530;2023-05-07T03:11:45;12.70;99.90
5802;DHT22;2927;49.366;8.530;2023-05-07T03:14:11;12.60;99.90
5802;DHT22;2927;49.366;8.530;2023-05-07T03:16:37;12.70;99.90
5802;DHT22;2927;49.366;8.530;2023-05-07T03:19:03;12.60;99.90
5802;DHT22;2927;49.366;8.530;2023-05-07T03:21:30;12.60;99.90
5802;DHT22;2927;49.366;8.530;2023-05-07T03:23:55;12.50;99.90
5802;DHT22;2927;49.366;8.530;2023-05-07T03:26:21;12.50;99.90
5802;DHT22;2927;49.366;8.530;2023-05-07T03:28:47;12.50;99.90
5802;DHT22;2927;49.366;8.530;2023-05-07T03:31:12;12.50;99.90
5802;DHT22;2927;49.366;8.530;2023-05-07T03:33:55;12.40;99.90
5802;DHT22;2927;49.366;8.530;2023-05-07T03:36:22;12.40;99.90
5802;DHT22;2927;49.366;8.530;2023-05-07T03:38:48;12.30;99.90
5802;DHT22;2927;49.366;8.530;2023-05-07T03:41:14;12.30;99.90
5802;DHT22;2927;49.366;8.530;2023-05-07T03:43:39;12.20;99.90
5802;DHT22;2927;49.366;8.530;2023-05-07T03:46:05;12.20;99.90
5802;DHT22;2927;49.366;8.530;2023-05-07T03:48:30;12.20;99.90
5802;DHT22;2927;49.366;8.530;2023-05-07T03:50:57;12.20;99.90
5802;DHT22;2927;49.366;8.530;2023-05-07T03:53:23;12.30;99.90
5802;DHT22;2927;49.366;8.530;2023-05-07T03:55:48;12.20;99.90
5802;DHT22;2927;49.366;8.530;2023-05-07T03:58:14;12.20;99.90
5802;DHT22;2927;49.366;8.530;2023-05-07T04:00:39;12.30;99.90
5802;DHT22;2927;49.366;8.530;2023-05-07T04:03:06;12.30;99.90
5802;DHT22;2927;49.366;8.530;2023-05-07T04:05:31;12.30;99.90
5802;DHT22;2927;49.366;8.530;2023-05-07T04:07:59;12.40;99.90
5802;DHT22;2927;49.366;8.530;2023-05-07T04:10:25;12.30;99.90
5802;DHT22;2927;49.366;8.530;2023-05-07T04:12:51;12.30;99.90
5802;DHT22;2927;49.366;8.530;2023-05-07T04:15:17;12.40;99.90
5802;DHT22;2927;49.366;8.530;2023-05-07T04:17:42;12.40;99.90
5802;DHT22;2927;49.366;8.530;2023-05-07T04:20:15;12.30;99.90
5802;DHT22;2927;49.366;8.530;2023-05-07T04:22:41;12.40;99.90
5802;DHT22;2927;49.366;8.530;2023-05-07T04:25:08;12.40;99.90
5802;DHT22;2927;49.366;8.530;2023-05-07T04:27:37;12.60;99.90
5802;DHT22;2927;49.366;8.530;2023-05-07T04:30:03;12.60;99.90
5802;DHT22;2927;49.366;8.530;2023-05-07T04:32:29;12.70;99.90
5802;DHT22;2927;49.366;8.530;2023-05-07T04:34:58;12.80;99.90
5802;DHT22;2927;49.366;8.530;2023-05-07T04:37:24;12.90;99.90
5802;DHT22;2927;49.366;8.530;2023-05-07T04:39:50;13.00;99.90
5802;DHT22;2927;49.366;8.530;2023-05-07T04:42:16;13.00;99.90
5802;DHT22;2927;49.366;8.530;2023-05-07T04:44:44;13.10;99.90
5802;DHT22;2927;49.366;8.530;2023-05-07T04:47:09;13.20;99.90
5802;DHT22;2927;49.366;8.530;2023-05-07T04:49:35;13.20;99.90
5802;DHT22;2927;49.366;8.530;2023-05-07T04:52:01;13.30;99.90
5802;DHT22;2927;49.366;8.530;2023-05-07T04:54:26;13.40;99.90
5802;DHT22;2927;49.366;8.530;2023-05-07T04:56:52;13.50;99.90
5802;DHT22;2927;49.366;8.530;2023-05-07T04:59:17;13.60;99.90
5802;DHT22;2927;49.366;8.530;2023-05-07T05:01:43;13.60;99.90
5802;DHT22;2927;49.366;8.530;2023-05-07T05:04:09;13.60;99.90
5802;DHT22;2927;49.366;8.530;2023-05-07T05:06:35;13.70;99.90
5802;DHT22;2927;49.366;8.530;2023-05-07T05:09:01;13.80;99.90
5802;DHT22;2927;49.366;8.530;2023-05-07T05:11:26;13.80;99.90
5802;DHT22;2927;49.366;8.530;2023-05-07T05:13:52;13.80;99.90
5802;DHT22;2927;49.366;8.530;2023-05-07T05:16:17;13.90;99.90
5802;DHT22;2927;49.366;8.530;2023-05-07T05:18:43;13.90;99.90
5802;DHT22;2927;49.366;8.530;2023-05-07T05:21:08;14.00;99.90
5802;DHT22;2927;49.366;8.530;2023-05-07T05:23:34;14.10;99.90
5802;DHT22;2927;49.366;8.530;2023-05-07T05:25:59;14.20;99.90
5802;DHT22;2927;49.366;8.530;2023-05-07T05:28:25;14.30;99.90
5802;DHT22;2927;49.366;8.530;2023-05-07T05:30:50;14.40;99.90
5802;DHT22;2927;49.366;8.530;2023-05-07T05:33:16;14.50;99.90
5802;DHT22;2927;49.366;8.530;2023-05-07T05:35:42;14.60;99.90
5802;DHT22;2927;49.366;8.530;2023-05-07T05:38:07;14.60;99.90
5802;DHT22;2927;49.366;8.530;2023-05-07T05:40:33;14.70;99.90
5802;DHT22;2927;49.366;8.530;2023-05-07T05:42:59;14.80;99.90
5802;DHT22;2927;49.366;8.530;2023-05-07T05:45:24;14.90;99.90
5802;DHT22;2927;49.366;8.530;2023-05-07T05:47:50;15.00;99.90
5802;DHT22;2927;49.366;8.530;2023-05-07T05:50:16;15.10;99.90
5802;DHT22;2927;49.366;8.530;2023-05-07T05:52:41;15.20;99.90
5802;DHT22;2927;49.366;8.530;2023-05-07T05:55:07;15.50;99.90
5802;DHT22;2927;49.366;8.530;2023-05-07T05:57:33;15.90;99.90
5802;DHT22;2927;49.366;8.530;2023-05-07T06:00:00;16.30;99.90
5802;DHT22;2927;49.366;8.530;2023-05-07T06:02:26;16.80;99.90
5802;DHT22;2927;49.366;8.530;2023-05-07T06:04:51;17.40;99.90
5802;DHT22;2927;49.366;8.530;2023-05-07T06:07:17;17.50;99.90
5802;DHT22;2927;49.366;8.530;2023-05-07T06:09:42;17.60;99.90
5802;DHT22;2927;49.366;8.530;2023-05-07T06:12:08;17.80;85.00
5802;DHT22;2927;49.366;8.530;2023-05-07T06:14:33;17.70;86.60
5802;DHT22;2927;49.366;8.530;2023-05-07T06:16:59;17.70;99.00
5802;DHT22;2927;49.366;8.530;2023-05-07T06:19:24;17.60;95.70
5802;DHT22;2927;49.366;8.530;2023-05-07T06:21:51;17.70;1.00
5802;DHT22;2927;49.366;8.530;2023-05-07T06:24:17;17.90;99.90
5802;DHT22;2927;49.366;8.530;2023-05-07T06:26:42;18.00;1.00
5802;DHT22;2927;49.366;8.530;2023-05-07T06:29:08;18.00;99.90
5802;DHT22;2927;49.366;8.530;2023-05-07T06:31:33;17.80;99.90
5802;DHT22;2927;49.366;8.530;2023-05-07T06:33:59;17.60;1.00
5802;DHT22;2927;49.366;8.530;2023-05-07T06:36:27;17.60;1.00
5802;DHT22;2927;49.366;8.530;2023-05-07T06:38:53;17.50;1.00
5802;DHT22;2927;49.366;8.530;2023-05-07T06:41:18;17.90;1.00
5802;DHT22;2927;49.366;8.530;2023-05-07T06:43:44;18.70;99.90
5802;DHT22;2927;49.366;8.530;2023-05-07T06:46:09;18.70;99.90
5802;DHT22;2927;49.366;8.530;2023-05-07T06:48:35;19.00;1.00
5802;DHT22;2927;49.366;8.530;2023-05-07T06:51:00;20.20;36.80
5802;DHT22;2927;49.366;8.530;2023-05-07T06:53:26;22.00;1.00
5802;DHT22;2927;49.366;8.530;2023-05-07T06:55:51;23.20;1.00
5802;DHT22;2927;49.366;8.530;2023-05-07T06:58:17;23.00;1.00
5802;DHT22;2927;49.366;8.530;2023-05-07T07:00:43;22.10;1.00
5802;DHT22;2927;49.366;8.530;2023-05-07T07:03:08;21.60;99.90
5802;DHT22;2927;49.366;8.530;2023-05-07T07:05:34;22.00;99.90
5802;DHT22;2927;49.366;8.530;2023-05-07T07:07:59;22.30;1.00
5802;DHT22;2927;49.366;8.530;2023-05-07T07:10:25;21.80;99.90
5802;DHT22;2927;49.366;8.530;2023-05-07T07:12:50;21.50;99.90
5802;DHT22;2927;49.366;8.530;2023-05-07T07:15:17;21.70;99.90
5802;DHT22;2927;49.366;8.530;2023-05-07T07:17:43;23.50;1.00
5802;DHT22;2927;49.366;8.530;2023-05-07T07:20:09;24.80;1.00
5802;DHT22;2927;49.366;8.530;2023-05-07T07:22:35;25.40;99.90
5802;DHT22;2927;49.366;8.530;2023-05-07T07:25:00;25.30;99.90
5802;DHT22;2927;49.366;8.530;2023-05-07T07:27:26;25.20;99.90
5802;DHT22;2927;49.366;8.530;2023-05-07T07:29:52;25.00;99.90
5802;DHT22;2927;49.366;8.530;2023-05-07T07:32:17;24.30;99.90
5802;DHT22;2927;49.366;8.530;2023-05-07T07:34:43;23.60;99.90
5802;DHT22;2927;49.366;8.530;2023-05-07T07:37:09;23.10;1.00
5802;DHT22;2927;49.366;8.530;2023-05-07T07:39:34;22.80;1.00
5802;DHT22;2927;49.366;8.530;2023-05-07T07:42:00;22.50;1.00
5802;DHT22;2927;49.366;8.530;2023-05-07T07:44:27;22.50;1.00
5802;DHT22;2927;49.366;8.530;2023-05-07T07:46:53;22.30;1.00
5802;DHT22;2927;49.366;8.530;2023-05-07T07:49:19;22.40;1.00
5802;DHT22;2927;49.366;8.530;2023-05-07T07:51:44;22.50;1.00
5802;DHT22;2927;49.366;8.530;2023-05-07T07:54:10;22.60;1.00
5802;DHT22;2927;49.366;8.530;2023-05-07T07:56:36;22.50;1.00
5802;DHT22;2927;49.366;8.530;2023-05-07T07:59:02;22.60;1.00
5802;DHT22;2927;49.366;8.530;2023-05-07T08:01:30;22.60;1.00
5802;DHT22;2927;49.366;8.530;2023-05-07T08:03:55;22.50;1.00
5802;DHT22;2927;49.366;8.530;2023-05-07T08:06:21;22.70;1.00
5802;DHT22;2927;49.366;8.530;2023-05-07T08:08:46;22.70;1.00
5802;DHT22;2927;49.366;8.530;2023-05-07T08:11:12;22.80;1.00
5802;DHT22;2927;49.366;8.530;2023-05-07T08:13:38;23.00;1.00
5802;DHT22;2927;49.366;8.530;2023-05-07T08:16:04;23.00;1.00
5802;DHT22;2927;49.366;8.530;2023-05-07T08:18:29;23.30;1.00
5802;DHT22;2927;49.366;8.530;2023-05-07T08:20:55;23.70;1.00
5802;DHT22;2927;49.366;8.530;2023-05-07T08:23:21;24.20;1.00
5802;DHT22;2927;49.366;8.530;2023-05-07T08:25:47;24.90;99.90
5802;DHT22;2927;49.366;8.530;2023-05-07T08:28:13;25.60;99.90
5802;DHT22;2927;49.366;8.530;2023-05-07T08:30:38;26.50;99.90
5802;DHT22;2927;49.366;8.530;2023-05-07T08:33:04;27.90;99.90
5802;DHT22;2927;49.366;8.530;2023-05-07T08:35:29;29.70;5.50
5802;DHT22;2927;49.366;8.530;2023-05-07T08:37:55;31.00;1.00
5802;DHT22;2927;49.366;8.530;2023-05-07T08:40:24;32.30;1.00
5802;DHT22;2927;49.366;8.530;2023-05-07T08:42:52;33.40;1.00
5802;DHT22;2927;49.366;8.530;2023-05-07T08:45:19;33.60;1.00
5802;DHT22;2927;49.366;8.530;2023-05-07T08:47:47;33.70;1.00
5802;DHT22;2927;49.366;8.530;2023-05-07T08:50:16;33.70;1.00
5802;DHT22;2927;49.366;8.530;2023-05-07T08:52:41;32.70;1.00
5802;DHT22;2927;49.366;8.530;2023-05-07T08:55:08;31.00;1.00
5802;DHT22;2927;49.366;8.530;2023-05-07T08:57:34;29.20;1.00
5802;DHT22;2927;49.366;8.530;2023-05-07T09:00:00;27.70;1.00
5802;DHT22;2927;49.366;8.530;2023-05-07T09:02:25;27.10;1.00
5802;DHT22;2927;49.366;8.530;2023-05-07T09:04:51;26.60;1.00
5802;DHT22;2927;49.366;8.530;2023-05-07T09:07:19;26.60;1.00
5802;DHT22;2927;49.366;8.530;2023-05-07T09:09:44;26.10;1.00
5802;DHT22;2927;49.366;8.530;2023-05-07T09:12:10;26.20;1.00
5802;DHT22;2927;49.366;8.530;2023-05-07T09:14:36;26.50;1.00
5802;DHT22;2927;49.366;8.530;2023-05-07T09:17:01;26.90;1.00
5802;DHT22;2927;49.366;8.530;2023-05-07T09:19:27;27.00;1.00
5802;DHT22;2927;49.366;8.530;2023-05-07T09:22:00;27.20;1.00
5802;DHT22;2927;49.366;8.530;2023-05-07T09:24:26;28.00;1.00
5802;DHT22;2927;49.366;8.530;2023-05-07T09:26:54;28.40;1.00
5802;DHT22;2927;49.366;8.530;2023-05-07T09:29:20;28.40;1.00
5802;DHT22;2927;49.366;8.530;2023-05-07T09:31:46;28.50;1.00
5802;DHT22;2927;49.366;8.530;2023-05-07T09:34:11;29.10;1.00
5802;DHT22;2927;49.366;8.530;2023-05-07T09:36:37;29.50;1.00
5802;DHT22;2927;49.366;8.530;2023-05-07T09:39:03;29.90;1.00
5802;DHT22;2927;49.366;8.530;2023-05-07T09:41:30;29.90;1.00
5802;DHT22;2927;49.366;8.530;2023-05-07T09:43:58;30.00;1.00
5802;DHT22;2927;49.366;8.530;2023-05-07T09:46:29;30.10;1.00
5802;DHT22;2927;49.366;8.530;2023-05-07T09:48:57;30.90;1.00
5802;DHT22;2927;49.366;8.530;2023-05-07T09:51:36;31.10;1.00
5802;DHT22;2927;49.366;8.530;2023-05-07T09:54:04;30.80;1.00
5802;DHT22;2927;49.366;8.530;2023-05-07T09:56:30;31.50;1.00
5802;DHT22;2927;49.366;8.530;2023-05-07T09:58:59;32.50;1.00
5802;DHT22;2927;49.366;8.530;2023-05-07T10:01:25;33.40;1.00
5802;DHT22;2927;49.366;8.530;2023-05-07T10:03:52;33.50;1.00
5802;DHT22;2927;49.366;8.530;2023-05-07T10:06:20;33.30;1.00
5802;DHT22;2927;49.366;8.530;2023-05-07T10:08:45;32.70;1.00
5802;DHT22;2927;49.366;8.530;2023-05-07T10:11:12;31.60;1.00
5802;DHT22;2927;49.366;8.530;2023-05-07T10:13:37;30.90;1.00
5802;DHT22;2927;49.366;8.530;2023-05-07T10:16:06;29.90;1.00
5802;DHT22;2927;49.366;8.530;2023-05-07T10:18:32;29.00;1.00
5802;DHT22;2927;49.366;8.530;2023-05-07T10:21:19;28.50;1.00
5802;DHT22;2927;49.366;8.530;2023-05-07T10:23:46;27.50;1.00
5802;DHT22;2927;49.366;8.530;2023-05-07T10:26:13;27.10;1.00
5802;DHT22;2927;49.366;8.530;2023-05-07T10:28:43;27.10;1.00
5802;DHT22;2927;49.366;8.530;2023-05-07T10:34:01;25.90;1.00
5802;DHT22;2927;49.366;8.530;2023-05-07T10:36:28;25.40;1.00
5802;DHT22;2927;49.366;8.530;2023-05-07T10:38:54;25.20;1.00
5802;DHT22;2927;49.366;8.530;2023-05-07T10:41:20;25.20;1.00
5802;DHT22;2927;49.366;8.530;2023-05-07T10:43:46;25.50;1.00
5802;DHT22;2927;49.366;8.530;2023-05-07T10:46:16;25.20;1.00
5802;DHT22;2927;49.366;8.530;2023-05-07T10:51:27;25.40;1.00
5802;DHT22;2927;49.366;8.530;2023-05-07T10:56:37;25.90;1.00
5802;DHT22;2927;49.366;8.530;2023-05-07T11:02:01;25.70;1.00
5802;DHT22;2927;49.366;8.530;2023-05-07T11:04:31;25.40;1.00
5802;DHT22;2927;49.366;8.530;2023-05-07T11:15:12;25.40;1.00
5802;DHT22;2927;49.366;8.530;2023-05-07T11:17:58;25.30;1.00
5802;DHT22;2927;49.366;8.530;2023-05-07T11:20:59;25.20;1.00
5802;DHT22;2927;49.366;8.530;2023-05-07T11:26:07;25.40;1.00
5802;DHT22;2927;49.366;8.530;2023-05-07T11:28:40;25.20;1.00
5802;DHT22;2927;49.366;8.530;2023-05-07T11:31:06;25.20;1.00
5802;DHT22;2927;49.366;8.530;2023-05-07T11:33:32;25.00;1.00
5802;DHT22;2927;49.366;8.530;2023-05-07T11:35:59;25.00;1.00
5802;DHT22;2927;49.366;8.530;2023-05-07T11:38:25;24.90;1.00
5802;DHT22;2927;49.366;8.530;2023-05-07T11:40:53;25.00;1.00
5802;DHT22;2927;49.366;8.530;2023-05-07T11:43:18;25.00;1.00
5802;DHT22;2927;49.366;8.530;2023-05-07T11:45:48;25.00;1.00
5802;DHT22;2927;49.366;8.530;2023-05-07T11:48:14;25.20;1.00
5802;DHT22;2927;49.366;8.530;2023-05-07T11:50:53;25.30;1.00
5802;DHT22;2927;49.366;8.530;2023-05-07T11:53:20;25.20;1.00
5802;DHT22;2927;49.366;8.530;2023-05-07T11:55:52;25.20;1.00
5802;DHT22;2927;49.366;8.530;2023-05-07T11:58:21;25.20;1.00
5802;DHT22;2927;49.366;8.530;2023-05-07T12:00:51;25.00;1.00
5802;DHT22;2927;49.366;8.530;2023-05-07T12:03:16;24.80;1.00
5802;DHT22;2927;49.366;8.530;2023-05-07T12:05:43;24.80;1.00
5802;DHT22;2927;49.366;8.530;2023-05-07T12:08:14;24.80;1.00
5802;DHT22;2927;49.366;8.530;2023-05-07T12:10:42;24.70;1.00
5802;DHT22;2927;49.366;8.530;2023-05-07T12:13:21;24.70;1.00
5802;DHT22;2927;49.366;8.530;2023-05-07T12:15:50;24.70;1.00
5802;DHT22;2927;49.366;8.530;2023-05-07T12:18:16;24.80;1.00
5802;DHT22;2927;49.366;8.530;2023-05-07T12:20:42;24.80;1.00
5802;DHT22;2927;49.366;8.530;2023-05-07T12:23:08;24.80;1.00
5802;DHT22;2927;49.366;8.530;2023-05-07T12:25:38;24.90;1.00
5802;DHT22;2927;49.366;8.530;2023-05-07T12:28:04;24.90;1.00
5802;DHT22;2927;49.366;8.530;2023-05-07T12:30:37;25.00;1.00
5802;DHT22;2927;49.366;8.530;2023-05-07T12:33:02;25.10;1.00
5802;DHT22;2927;49.366;8.530;2023-05-07T12:35:35;25.20;1.00
5802;DHT22;2927;49.366;8.530;2023-05-07T12:38:01;25.30;1.00
5802;DHT22;2927;49.366;8.530;2023-05-07T12:40:46;25.40;1.00
5802;DHT22;2927;49.366;8.530;2023-05-07T12:43:27;25.30;1.00
5802;DHT22;2927;49.366;8.530;2023-05-07T12:45:57;25.60;1.00
5802;DHT22;2927;49.366;8.530;2023-05-07T12:48:23;25.90;1.00
5802;DHT22;2927;49.366;8.530;2023-05-07T12:50:53;26.00;1.00
5802;DHT22;2927;49.366;8.530;2023-05-07T12:53:21;26.10;1.00
5802;DHT22;2927;49.366;8.530;2023-05-07T12:55:50;26.00;1.00
5802;DHT22;2927;49.366;8.530;2023-05-07T12:58:35;25.90;1.00
5802;DHT22;2927;49.366;8.530;2023-05-07T13:01:05;25.80;1.00
5802;DHT22;2927;49.366;8.530;2023-05-07T13:03:36;25.50;1.00
5802;DHT22;2927;49.366;8.530;2023-05-07T13:06:04;25.40;1.00
5802;DHT22;2927;49.366;8.530;2023-05-07T13:10:58;25.20;1.00
5802;DHT22;2927;49.366;8.530;2023-05-07T13:13:24;25.20;1.00
5802;DHT22;2927;49.366;8.530;2023-05-07T13:15:50;25.10;1.00
5802;DHT22;2927;49.366;8.530;2023-05-07T13:18:16;25.10;1.00
5802;DHT22;2927;49.366;8.530;2023-05-07T13:20:41;25.00;1.00
5802;DHT22;2927;49.366;8.530;2023-05-07T13:23:07;24.80;1.00
5802;DHT22;2927;49.366;8.530;2023-05-07T13:25:32;24.80;1.00
5802;DHT22;2927;49.366;8.530;2023-05-07T13:27:58;24.70;1.00
5802;DHT22;2927;49.366;8.530;2023-05-07T13:30:24;24.60;1.00
5802;DHT22;2927;49.366;8.530;2023-05-07T13:32:49;24.60;1.00
5802;DHT22;2927;49.366;8.530;2023-05-07T13:35:16;24.60;1.00
5802;DHT22;2927;49.366;8.530;2023-05-07T13:37:42;24.70;99.90
5802;DHT22;2927;49.366;8.530;2023-05-07T13:40:08;24.60;99.90
5802;DHT22;2927;49.366;8.530;2023-05-07T13:42:33;24.30;1.00
5802;DHT22;2927;49.366;8.530;2023-05-07T13:44:59;23.90;1.00
5802;DHT22;2927;49.366;8.530;2023-05-07T13:47:24;23.30;99.90
5802;DHT22;2927;49.366;8.530;2023-05-07T13:49:50;22.20;1.00
5802;DHT22;2927;49.366;8.530;2023-05-07T13:52:16;21.30;99.90
5802;DHT22;2927;49.366;8.530;2023-05-07T13:54:42;20.80;99.90
5802;DHT22;2927;49.366;8.530;2023-05-07T13:57:07;20.60;1.00
5802;DHT22;2927;49.366;8.530;2023-05-07T13:59:33;20.30;1.00
5802;DHT22;2927;49.366;8.530;2023-05-07T14:01:59;20.10;1.00
5802;DHT22;2927;49.366;8.530;2023-05-07T14:04:25;20.00;1.00
5802;DHT22;2927;49.366;8.530;2023-05-07T14:06:51;19.80;1.00
5802;DHT22;2927;49.366;8.530;2023-05-07T14:09:16;19.70;99.90
5802;DHT22;2927;49.366;8.530;2023-05-07T14:11:42;19.60;1.00
5802;DHT22;2927;49.366;8.530;2023-05-07T14:14:07;19.60;1.00
5802;DHT22;2927;49.366;8.530;2023-05-07T14:16:36;19.60;1.00
5802;DHT22;2927;49.366;8.530;2023-05-07T14:19:01;19.70;99.90
5802;DHT22;2927;49.366;8.530;2023-05-07T14:21:27;19.70;1.00
5802;DHT22;2927;49.366;8.530;2023-05-07T14:23:52;19.80;99.90
5802;DHT22;2927;49.366;8.530;2023-05-07T14:26:18;19.60;1.00
5802;DHT22;2927;49.366;8.530;2023-05-07T14:28:44;19.60;99.90
5802;DHT22;2927;49.366;8.530;2023-05-07T14:31:12;19.70;1.00
5802;DHT22;2927;49.366;8.530;2023-05-07T14:33:37;19.20;1.00
5802;DHT22;2927;49.366;8.530;2023-05-07T14:36:03;18.80;1.00
5802;DHT22;2927;49.366;8.530;2023-05-07T14:38:29;18.20;99.90
5802;DHT22;2927;49.366;8.530;2023-05-07T14:40:55;17.60;99.90
5802;DHT22;2927;49.366;8.530;2023-05-07T14:43:21;17.00;99.90
5802;DHT22;2927;49.366;8.530;2023-05-07T14:45:47;16.70;99.90
5802;DHT22;2927;49.366;8.530;2023-05-07T14:48:12;16.60;99.90
5802;DHT22;2927;49.366;8.530;2023-05-07T14:50:43;16.40;99.90
5802;DHT22;2927;49.366;8.530;2023-05-07T14:53:08;16.30;99.90
5802;DHT22;2927;49.366;8.530;2023-05-07T14:55:34;16.00;99.90
5802;DHT22;2927;49.366;8.530;2023-05-07T14:58:00;15.90;99.90
5802;DHT22;2927;49.366;8.530;2023-05-07T15:00:26;15.80;99.90
5802;DHT22;2927;49.366;8.530;2023-05-07T15:02:52;15.80;99.90
5802;DHT22;2927;49.366;8.530;2023-05-07T15:05:17;15.70;99.90
5802;DHT22;2927;49.366;8.530;2023-05-07T15:07:44;15.70;99.90
5802;DHT22;2927;49.366;8.530;2023-05-07T15:10:10;15.60;99.90
5802;DHT22;2927;49.366;8.530;2023-05-07T15:12:35;15.70;99.90
5802;DHT22;2927;49.366;8.530;2023-05-07T15:15:01;15.80;99.90
5802;DHT22;2927;49.366;8.530;2023-05-07T15:17:27;15.70;99.90
5802;DHT22;2927;49.366;8.530;2023-05-07T15:19:52;15.70;99.90
5802;DHT22;2927;49.366;8.530;2023-05-07T15:22:18;15.60;99.90
5802;DHT22;2927;49.366;8.530;2023-05-07T15:24:43;15.60;99.90
5802;DHT22;2927;49.366;8.530;2023-05-07T15:27:09;15.50;99.90
5802;DHT22;2927;49.366;8.530;2023-05-07T15:29:35;15.50;99.90
5802;DHT22;2927;49.366;8.530;2023-05-07T15:32:00;15.50;99.90
5802;DHT22;2927;49.366;8.530;2023-05-07T15:34:26;15.50;99.90
5802;DHT22;2927;49.366;8.530;2023-05-07T15:36:52;15.50;99.90
5802;DHT22;2927;49.366;8.530;2023-05-07T15:39:18;15.40;99.90
5802;DHT22;2927;49.366;8.530;2023-05-07T15:41:43;15.40;99.90
5802;DHT22;2927;49.366;8.530;2023-05-07T15:44:09;15.50;99.90
5802;DHT22;2927;49.366;8.530;2023-05-07T15:46:35;15.50;99.90
5802;DHT22;2927;49.366;8.530;2023-05-07T15:49:02;15.40;99.90
5802;DHT22;2927;49.366;8.530;2023-05-07T15:51:35;15.40;99.90
5802;DHT22;2927;49.366;8.530;2023-05-07T15:54:01;15.40;99.90
5802;DHT22;2927;49.366;8.530;2023-05-07T15:56:26;15.40;99.90
5802;DHT22;2927;49.366;8.530;2023-05-07T15:58:52;15.40;99.90
5802;DHT22;2927;49.366;8.530;2023-05-07T16:01:18;15.40;99.90
5802;DHT22;2927;49.366;8.530;2023-05-07T16:03:43;15.30;99.90
5802;DHT22;2927;49.366;8.530;2023-05-07T16:06:09;15.30;99.90
5802;DHT22;2927;49.366;8.530;2023-05-07T16:08:37;15.30;99.90
5802;DHT22;2927;49.366;8.530;2023-05-07T16:11:04;15.20;99.90
5802;DHT22;2927;49.366;8.530;2023-05-07T16:13:30;15.20;99.90
5802;DHT22;2927;49.366;8.530;2023-05-07T16:15:56;15.20;99.90
5802;DHT22;2927;49.366;8.530;2023-05-07T16:18:22;15.20;99.90
5802;DHT22;2927;49.366;8.530;2023-05-07T16:20:48;15.20;99.90
5802;DHT22;2927;49.366;8.530;2023-05-07T16:23:14;15.20;99.90
5802;DHT22;2927;49.366;8.530;2023-05-07T16:25:39;15.20;99.90
5802;DHT22;2927;49.366;8.530;2023-05-07T16:28:05;15.30;99.90